createdAt,value
2018-02-17T00:02:19.471Z,29.10
2018-02-17T00:04:47.558Z,30.60
2018-02-17T00:07:15.630Z,31.20
2018-02-17T00:09:44.455Z,29.27
2018-02-17T00:12:12.509Z,31.03
2018-02-17T00:14:41.349Z,29.10
2018-02-17T00:17:09.390Z,29.03
2018-02-17T00:19:38.234Z,28.73
2018-02-17T00:22:06.302Z,26.97
2018-02-17T00:24:34.371Z,25.37
2018-02-17T00:27:03.220Z,26.47
2018-02-17T00:29:31.284Z,27.00
2018-02-17T00:31:59.351Z,26.23
2018-02-17T00:34:28.275Z,23.13
2018-02-17T00:36:56.330Z,27.83
2018-02-17T00:39:24.386Z,25.23
2018-02-17T00:41:52.472Z,31.83
2018-02-17T00:44:20.622Z,22.83
2018-02-17T00:46:48.696Z,21.50
2018-02-17T00:49:16.767Z,19.50
2018-02-17T00:51:44.843Z,25.40
2018-02-17T00:54:13.662Z,26.63
2018-02-17T00:56:41.725Z,27.07
2018-02-17T00:59:09.780Z,29.33
2018-02-17T01:01:37.862Z,28.50
2018-02-17T01:04:05.941Z,27.87
2018-02-17T01:06:34.003Z,31.30
2018-02-17T01:09:02.079Z,32.20
2018-02-17T01:11:30.132Z,27.70
2018-02-17T01:13:59.230Z,31.57
2018-02-17T01:16:27.269Z,29.77
2018-02-17T01:18:55.356Z,28.47
2018-02-17T01:21:23.421Z,24.57
2018-02-17T01:23:51.473Z,29.17
2018-02-17T01:26:19.537Z,29.67
2018-02-17T01:28:47.911Z,29.80
2018-02-17T01:31:15.974Z,29.37
2018-02-17T01:33:44.058Z,30.70
2018-02-17T01:36:12.138Z,29.80
2018-02-17T01:38:40.176Z,27.50
2018-02-17T01:41:08.239Z,23.73
2018-02-17T01:43:36.314Z,20.17
2018-02-17T01:46:04.386Z,21.30
2018-02-17T01:48:32.448Z,15.67
2018-02-17T01:51:01.147Z,10.50
2018-02-17T01:53:29.195Z,8.50
2018-02-17T01:55:57.252Z,8.40
2018-02-17T01:58:25.319Z,7.73
2018-02-17T02:00:53.391Z,8.57
2018-02-17T02:03:21.448Z,9.27
2018-02-17T02:05:50.263Z,9.00
2018-02-17T02:08:18.345Z,9.60
2018-02-17T02:10:46.423Z,9.93
2018-02-17T02:13:15.248Z,10.63
2018-02-17T02:15:43.298Z,11.63
2018-02-17T02:18:12.120Z,12.20
2018-02-17T02:20:40.181Z,12.17
2018-02-17T02:23:08.215Z,13.83
2018-02-17T02:25:36.280Z,15.47
2018-02-17T02:28:04.355Z,15.77
2018-02-17T02:30:32.435Z,15.10
2018-02-17T02:33:00.501Z,15.77
2018-02-17T02:35:29.323Z,14.97
2018-02-17T02:37:57.371Z,16.10
2018-02-17T02:40:25.449Z,15.17
2018-02-17T02:42:53.509Z,17.07
2018-02-17T02:45:21.606Z,15.90
2018-02-17T02:47:49.649Z,14.93
2018-02-17T02:50:17.705Z,17.27
2018-02-17T02:52:46.545Z,14.80
2018-02-17T02:55:14.606Z,14.83
2018-02-17T02:57:42.672Z,15.70
2018-02-17T03:00:11.498Z,17.53
2018-02-17T03:02:39.561Z,12.33
2018-02-17T03:05:08.385Z,14.93
2018-02-17T03:07:36.479Z,15.77
2018-02-17T03:10:04.544Z,22.00
2018-02-17T03:12:32.626Z,17.03
2018-02-17T03:15:00.812Z,16.30
2018-02-17T03:17:28.837Z,15.37
2018-02-17T03:19:56.919Z,15.97
2018-02-17T03:22:24.985Z,40.77
2018-02-17T03:24:53.061Z,14.87
2018-02-17T03:27:21.106Z,14.17
2018-02-17T03:29:49.954Z,15.93
2018-02-17T03:32:18.016Z,16.37
2018-02-17T03:34:46.067Z,15.87
2018-02-17T03:37:14.115Z,18.00
2018-02-17T03:39:42.174Z,16.93
2018-02-17T03:42:10.219Z,18.27
2018-02-17T03:44:38.353Z,16.60
2018-02-17T03:47:06.417Z,17.40
2018-02-17T03:49:34.493Z,17.90
2018-02-17T03:52:03.551Z,17.13
2018-02-17T03:54:31.624Z,17.30
2018-02-17T03:56:59.711Z,16.00
2018-02-17T03:59:27.774Z,17.40
2018-02-17T04:01:55.829Z,16.00
2018-02-17T04:04:23.892Z,15.53
2018-02-17T04:06:51.951Z,14.23
2018-02-17T04:09:20.032Z,13.83
2018-02-17T04:11:48.874Z,13.87
2018-02-17T04:14:17.025Z,14.47
2018-02-17T04:16:45.088Z,14.37
2018-02-17T04:19:13.140Z,15.50
2018-02-17T04:21:41.208Z,14.77
2018-02-17T04:24:10.042Z,12.70
2018-02-17T04:26:38.100Z,16.23
2018-02-17T04:29:06.156Z,14.67
2018-02-17T04:31:34.232Z,12.07
2018-02-17T04:34:02.307Z,13.57
2018-02-17T04:36:30.370Z,12.27
2018-02-17T04:38:58.441Z,12.57
2018-02-17T04:41:32.241Z,11.63
2018-02-17T04:44:03.806Z,11.07
2018-02-17T04:46:33.804Z,12.57
2018-02-17T04:49:23.374Z,9.70
2018-02-17T04:51:54.251Z,10.23
2018-02-17T04:54:27.074Z,9.90
2018-02-17T05:00:03.442Z,9.53
2018-02-17T05:02:36.316Z,7.80
2018-02-17T05:05:24.051Z,8.57
2018-02-17T05:08:06.977Z,9.07
2018-02-17T05:10:35.035Z,8.60
2018-02-17T05:13:03.079Z,9.80
2018-02-17T05:15:31.735Z,9.40
2018-02-17T05:18:05.496Z,8.93
2018-02-17T05:20:50.439Z,9.80
2018-02-17T05:23:18.588Z,10.23
2018-02-17T05:25:50.298Z,9.70
2018-02-17T05:28:19.233Z,10.80
2018-02-17T05:30:50.080Z,11.80
2018-02-17T05:33:33.051Z,11.83
2018-02-17T05:36:09.636Z,11.17
2018-02-17T05:38:37.708Z,11.00
2018-02-17T05:41:06.351Z,10.63
2018-02-17T05:43:34.431Z,9.90
2018-02-17T05:46:04.527Z,10.03
2018-02-17T05:48:33.419Z,10.43
2018-02-17T05:51:02.427Z,10.03
2018-02-17T05:53:30.465Z,11.23
2018-02-17T05:55:58.542Z,11.20
2018-02-17T05:58:26.605Z,11.03
2018-02-17T06:00:54.681Z,10.53
2018-02-17T06:03:22.750Z,11.47
2018-02-17T06:05:50.834Z,13.80
2018-02-17T06:08:18.902Z,20.27
2018-02-17T06:10:46.972Z,12.80
2018-02-17T06:13:16.781Z,13.17
2018-02-17T06:15:44.862Z,15.90
2018-02-17T06:18:12.915Z,11.73
2018-02-17T06:20:41.031Z,11.10
2018-02-17T06:23:09.098Z,12.07
2018-02-17T06:25:37.168Z,24.43
2018-02-17T06:28:05.240Z,12.97
2018-02-17T06:30:33.283Z,11.57
2018-02-17T06:33:02.108Z,13.00
2018-02-17T06:35:30.193Z,16.67
2018-02-17T06:37:59.012Z,16.37
2018-02-17T06:40:27.133Z,12.40
2018-02-17T06:42:55.186Z,13.20
2018-02-17T06:45:23.259Z,12.07
2018-02-17T06:47:51.315Z,12.57
2018-02-17T06:50:19.363Z,13.00
2018-02-17T06:52:47.428Z,12.53
2018-02-17T06:55:15.480Z,12.63
2018-02-17T06:57:43.558Z,13.47
2018-02-17T07:00:11.630Z,13.53
2018-02-17T07:02:39.690Z,13.50
2018-02-17T07:05:07.745Z,27.30
2018-02-17T07:07:35.800Z,15.77
2018-02-17T07:10:03.869Z,14.77
2018-02-17T07:12:31.927Z,16.40
2018-02-17T07:15:00.978Z,18.07
2018-02-17T07:17:29.039Z,18.50
2018-02-17T07:19:57.107Z,17.00
2018-02-17T07:22:25.925Z,17.50
2018-02-17T07:24:53.992Z,18.10
2018-02-17T07:27:22.051Z,19.40
2018-02-17T07:29:50.088Z,18.87
2018-02-17T07:32:18.177Z,18.37
2018-02-17T07:34:46.225Z,19.33
2018-02-17T07:37:15.070Z,20.57
2018-02-17T07:39:43.124Z,22.33
2018-02-17T07:42:11.195Z,23.27
2018-02-17T07:44:39.251Z,22.47
2018-02-17T07:47:07.359Z,25.43
2018-02-17T07:49:35.428Z,20.67
2018-02-17T07:52:04.389Z,20.63
2018-02-17T07:54:32.439Z,21.33
2018-02-17T07:57:00.496Z,16.80
2018-02-17T07:59:28.592Z,14.13
2018-02-17T08:01:56.703Z,15.60
2018-02-17T08:04:25.533Z,17.13
2018-02-17T08:06:53.592Z,16.33
2018-02-17T08:09:21.651Z,18.20
2018-02-17T08:11:49.700Z,19.03
2018-02-17T08:14:17.756Z,18.00
2018-02-17T08:16:46.044Z,15.57
2018-02-17T08:19:14.109Z,17.50
2018-02-17T08:21:42.172Z,16.67
2018-02-17T08:24:10.266Z,20.13
2018-02-17T08:26:38.350Z,33.03
2018-02-17T08:29:06.409Z,23.30
2018-02-17T08:31:35.252Z,23.27
2018-02-17T08:34:03.337Z,22.17
2018-02-17T08:36:31.397Z,21.17
2018-02-17T08:38:59.457Z,17.03
2018-02-17T08:41:27.492Z,18.40
2018-02-17T08:43:55.564Z,17.37
2018-02-17T08:46:23.647Z,18.70
2018-02-17T08:48:51.713Z,21.27
2018-02-17T08:51:19.769Z,23.73
2018-02-17T08:53:47.837Z,33.10
2018-02-17T08:56:15.892Z,30.97
2018-02-17T08:58:43.974Z,30.63
2018-02-17T09:01:12.789Z,26.73
2018-02-17T09:03:40.847Z,22.53
2018-02-17T09:06:08.916Z,21.83
2018-02-17T09:08:36.980Z,23.73
2018-02-17T09:11:05.045Z,19.90
2018-02-17T09:13:33.103Z,22.77
2018-02-17T09:16:01.280Z,16.73
2018-02-17T09:18:29.359Z,25.70
2018-02-17T09:20:57.411Z,25.70
2018-02-17T09:23:25.486Z,29.17
2018-02-17T09:25:54.333Z,23.63
2018-02-17T09:28:22.389Z,19.30
2018-02-17T09:30:50.456Z,19.37
2018-02-17T09:33:18.513Z,19.63
2018-02-17T09:35:46.558Z,17.67
2018-02-17T09:38:14.627Z,19.67
2018-02-17T09:40:42.695Z,19.73
2018-02-17T09:43:10.744Z,22.97
2018-02-17T09:45:38.810Z,22.20
2018-02-17T09:48:06.876Z,18.23
2018-02-17T09:50:34.932Z,19.40
2018-02-17T09:53:02.982Z,18.60
2018-02-17T09:55:31.031Z,18.87
2018-02-17T09:57:59.082Z,22.43
2018-02-17T10:00:27.156Z,18.13
2018-02-17T10:02:55.962Z,22.17
2018-02-17T10:05:24.020Z,18.23
2018-02-17T10:07:52.831Z,17.70
2018-02-17T10:10:21.701Z,16.60
2018-02-17T10:12:49.831Z,15.67
2018-02-17T10:15:17.957Z,20.50
2018-02-17T10:17:46.013Z,20.87
2018-02-17T10:20:14.058Z,23.27
2018-02-17T10:22:42.875Z,24.13
2018-02-17T10:25:11.711Z,23.57
2018-02-17T10:27:39.768Z,20.23
2018-02-17T10:30:07.818Z,18.73
2018-02-17T10:32:35.880Z,17.30
2018-02-17T10:35:03.958Z,16.33
2018-02-17T10:37:32.009Z,18.53
2018-02-17T10:40:00.060Z,18.60
2018-02-17T10:42:28.890Z,18.30
2018-02-17T10:44:56.970Z,17.87
2018-02-17T10:47:25.035Z,18.50
2018-02-17T10:49:53.889Z,18.33
2018-02-17T10:52:22.718Z,32.27
2018-02-17T10:54:50.786Z,25.53
2018-02-17T10:57:18.839Z,20.13
2018-02-17T10:59:46.905Z,18.90
2018-02-17T11:02:15.732Z,19.87
2018-02-17T11:04:43.792Z,19.97
2018-02-17T11:07:11.851Z,19.63
2018-02-17T11:09:40.683Z,20.27
2018-02-17T11:12:08.743Z,30.43
2018-02-17T11:14:37.585Z,23.83
2018-02-17T11:17:05.651Z,19.97
2018-02-17T11:19:33.717Z,15.40
2018-02-17T11:22:02.524Z,18.70
2018-02-17T11:24:30.585Z,20.90
2018-02-17T11:26:58.662Z,23.30
2018-02-17T11:29:26.755Z,23.10
2018-02-17T11:31:55.594Z,17.17
2018-02-17T11:34:23.643Z,17.33
2018-02-17T11:36:52.464Z,16.30
2018-02-17T11:39:20.526Z,15.27
2018-02-17T11:41:49.351Z,11.90
2018-02-17T11:44:17.415Z,13.90
2018-02-17T11:46:46.243Z,11.60
2018-02-17T11:49:14.292Z,18.23
2018-02-17T11:51:43.128Z,15.97
2018-02-17T11:54:11.202Z,16.97
2018-02-17T11:56:39.247Z,14.57
2018-02-17T11:59:07.317Z,13.00
2018-02-17T12:01:35.399Z,13.47
2018-02-17T12:04:03.456Z,12.60
2018-02-17T12:06:31.667Z,14.53
2018-02-17T12:08:59.732Z,11.00
2018-02-17T12:11:27.778Z,12.97
2018-02-17T12:13:55.864Z,14.30
2018-02-17T12:16:23.925Z,10.77
2018-02-17T12:18:51.993Z,15.97
2018-02-17T12:21:20.039Z,14.17
2018-02-17T12:23:48.107Z,15.20
2018-02-17T12:26:16.152Z,10.37
2018-02-17T12:28:44.221Z,15.27
2018-02-17T12:31:12.272Z,9.60
2018-02-17T12:33:40.362Z,10.40
2018-02-17T12:36:08.415Z,10.97
2018-02-17T12:38:36.477Z,21.87
2018-02-17T12:41:05.373Z,13.50
2018-02-17T12:43:33.411Z,13.13
2018-02-17T12:46:01.466Z,10.77
2018-02-17T12:48:29.606Z,12.40
2018-02-17T12:50:57.703Z,12.37
2018-02-17T12:53:25.718Z,16.83
2018-02-17T12:55:53.773Z,16.30
2018-02-17T12:58:21.818Z,16.67
2018-02-17T13:00:49.873Z,19.17
2018-02-17T13:03:18.161Z,17.60
2018-02-17T13:05:46.213Z,19.60
2018-02-17T13:08:14.649Z,14.97
2018-02-17T13:10:42.699Z,15.77
2018-02-17T13:13:11.538Z,13.90
2018-02-17T13:15:39.606Z,23.97
2018-02-17T13:18:07.707Z,18.27
2018-02-17T13:20:35.779Z,12.33
2018-02-17T13:23:03.832Z,11.67
2018-02-17T13:25:32.659Z,12.67
2018-02-17T13:28:00.700Z,11.80
2018-02-17T13:30:28.772Z,10.43
2018-02-17T13:32:56.840Z,22.63
2018-02-17T13:35:24.905Z,13.70
2018-02-17T13:37:52.966Z,12.80
2018-02-17T13:40:21.014Z,11.87
2018-02-17T13:42:49.077Z,11.27
2018-02-17T13:45:17.136Z,11.30
2018-02-17T13:47:45.344Z,14.40
2018-02-17T13:50:13.426Z,12.47
2018-02-17T13:52:41.553Z,15.37
2018-02-17T13:55:10.390Z,20.43
2018-02-17T13:57:38.514Z,19.43
2018-02-17T14:00:06.558Z,13.57
2018-02-17T14:02:34.705Z,11.63
2018-02-17T14:05:03.697Z,11.03
2018-02-17T14:07:31.758Z,13.40
2018-02-17T14:09:59.821Z,18.73
2018-02-17T14:12:27.892Z,23.07
2018-02-17T14:14:55.946Z,18.00
2018-02-17T14:17:23.994Z,12.87
2018-02-17T14:19:52.047Z,12.60
2018-02-17T14:22:20.113Z,12.10
2018-02-17T14:24:48.161Z,9.10
2018-02-17T14:27:16.207Z,8.40
2018-02-17T14:29:44.261Z,9.00
2018-02-17T14:32:12.313Z,7.60
2018-02-17T14:34:40.409Z,9.83
2018-02-17T14:37:10.000Z,11.93
2018-02-17T14:39:38.077Z,11.23
2018-02-17T14:42:06.124Z,7.90
2018-02-17T14:44:34.195Z,8.07
2018-02-17T14:47:02.253Z,8.73
2018-02-17T14:49:30.295Z,8.60
2018-02-17T14:51:58.358Z,10.90
2018-02-17T14:54:27.191Z,12.33
2018-02-17T14:56:55.240Z,11.73
2018-02-17T14:59:23.296Z,11.97
2018-02-17T15:01:52.142Z,15.60
2018-02-17T15:04:20.208Z,17.30
2018-02-17T15:06:48.278Z,16.33
2018-02-17T15:09:16.331Z,18.90
2018-02-17T15:11:44.405Z,20.43
2018-02-17T15:14:12.426Z,17.10
2018-02-17T15:16:40.515Z,16.63
2018-02-17T15:19:08.582Z,17.83
2018-02-17T15:21:38.294Z,15.30
2018-02-17T15:24:07.121Z,18.87
2018-02-17T15:26:35.178Z,24.90
2018-02-17T15:29:03.230Z,33.13
2018-02-17T15:31:31.305Z,22.43
2018-02-17T15:33:59.379Z,22.23
2018-02-17T15:36:27.434Z,25.00
2018-02-17T15:38:55.485Z,27.67
2018-02-17T15:41:23.556Z,27.00
2018-02-17T15:43:51.627Z,67.60
2018-02-17T15:46:19.696Z,89.63
2018-02-17T15:48:47.760Z,75.40
2018-02-17T15:51:15.814Z,33.73
2018-02-17T15:53:44.652Z,35.27
2018-02-17T15:56:12.727Z,44.17
2018-02-17T15:58:40.883Z,33.53
2018-02-17T16:01:09.702Z,26.27
2018-02-17T16:03:38.536Z,21.07
2018-02-17T16:06:06.586Z,19.83
2018-02-17T16:08:34.675Z,20.37
2018-02-17T16:11:02.720Z,17.27
2018-02-17T16:13:30.791Z,15.27
2018-02-17T16:15:58.833Z,14.70
2018-02-17T16:18:26.911Z,17.40
2018-02-17T16:20:54.980Z,17.20
2018-02-17T16:23:23.799Z,17.13
2018-02-17T16:25:51.873Z,17.73
2018-02-17T16:28:19.956Z,16.77
2018-02-17T16:30:48.016Z,17.20
2018-02-17T16:33:16.845Z,20.53
2018-02-17T16:35:44.900Z,21.77
2018-02-17T16:38:12.972Z,19.60
2018-02-17T16:40:41.035Z,20.30
2018-02-17T16:43:09.104Z,15.50
2018-02-17T16:45:37.162Z,15.77
2018-02-17T16:48:05.310Z,16.50
2018-02-17T16:50:33.364Z,17.97
2018-02-17T16:53:01.414Z,19.47
2018-02-17T16:55:29.467Z,17.20
2018-02-17T16:57:57.514Z,16.73
2018-02-17T17:00:25.594Z,13.40
2018-02-17T17:02:54.413Z,16.07
2018-02-17T17:05:22.478Z,14.47
2018-02-17T17:07:50.556Z,17.27
2018-02-17T17:10:18.648Z,16.90
2018-02-17T17:12:46.700Z,17.97
2018-02-17T17:15:14.759Z,14.97
2018-02-17T17:17:43.584Z,15.77
2018-02-17T17:20:11.657Z,13.23
2018-02-17T17:22:40.485Z,12.70
2018-02-17T17:25:08.553Z,14.63
2018-02-17T17:27:37.380Z,16.37
2018-02-17T17:30:05.431Z,17.43
2018-02-17T17:32:33.529Z,16.20
2018-02-17T17:35:01.582Z,17.30
2018-02-17T17:37:30.416Z,14.13
2018-02-17T17:39:58.483Z,14.40
2018-02-17T17:42:26.634Z,14.00
2018-02-17T17:44:54.659Z,11.90
2018-02-17T17:47:22.702Z,12.97
2018-02-17T17:49:50.768Z,12.00
2018-02-17T17:52:18.820Z,16.90
2018-02-17T17:54:46.875Z,16.30
2018-02-17T17:57:15.678Z,18.77
2018-02-17T17:59:43.778Z,27.07
2018-02-17T18:02:11.861Z,17.77
2018-02-17T18:04:40.659Z,16.87
2018-02-17T18:07:08.709Z,14.20
2018-02-17T18:09:36.760Z,17.70
2018-02-17T18:12:04.824Z,17.50
2018-02-17T18:14:32.889Z,11.60
2018-02-17T18:17:00.943Z,13.70
2018-02-17T18:19:28.997Z,13.30
2018-02-17T18:21:57.073Z,12.27
2018-02-17T18:24:25.137Z,15.37
2018-02-17T18:26:53.267Z,11.97
2018-02-17T18:29:21.329Z,13.13
2018-02-17T18:31:49.382Z,15.13
2018-02-17T18:34:17.442Z,14.87
2018-02-17T18:36:46.254Z,16.40
2018-02-17T18:39:14.347Z,18.13
2018-02-17T18:41:42.387Z,20.07
2018-02-17T18:44:10.466Z,19.37
2018-02-17T18:46:38.515Z,20.80
2018-02-17T18:49:06.584Z,20.87
2018-02-17T18:51:34.632Z,21.90
2018-02-17T18:54:03.460Z,17.37
2018-02-17T18:56:31.513Z,21.77
2018-02-17T18:59:00.358Z,20.07
2018-02-17T19:01:28.432Z,19.43
2018-02-17T19:03:56.531Z,17.80
2018-02-17T19:06:24.597Z,16.23
2018-02-17T19:08:52.673Z,18.37
2018-02-17T19:11:20.748Z,16.10
2018-02-17T19:13:49.573Z,18.30
2018-02-17T19:16:17.638Z,16.70
2018-02-17T19:18:46.474Z,17.17
2018-02-17T19:21:14.613Z,14.97
2018-02-17T19:23:42.656Z,16.17
2018-02-17T19:26:10.771Z,16.90
2018-02-17T19:28:38.968Z,21.43
2018-02-17T19:31:07.801Z,16.33
2018-02-17T19:33:35.883Z,15.00
2018-02-17T19:36:03.937Z,15.60
2018-02-17T19:38:32.013Z,16.57
2018-02-17T19:41:00.101Z,16.13
2018-02-17T19:43:28.954Z,19.10
2018-02-17T19:45:57.029Z,16.57
2018-02-17T19:48:25.179Z,19.37
2018-02-17T19:50:53.251Z,17.90
2018-02-17T19:53:22.091Z,16.97
2018-02-17T19:55:50.175Z,17.90
2018-02-17T19:58:18.237Z,17.60
2018-02-17T20:00:46.469Z,15.13
2018-02-17T20:03:14.488Z,14.50
2018-02-17T20:05:42.552Z,15.00
2018-02-17T20:08:10.859Z,16.40
2018-02-17T20:10:39.738Z,17.83
2018-02-17T20:13:07.805Z,15.97
2018-02-17T20:15:35.882Z,19.53
2018-02-17T20:18:04.832Z,21.00
2018-02-17T20:20:32.964Z,18.83
2018-02-17T20:23:01.944Z,17.80
2018-02-17T20:25:30.083Z,17.27
2018-02-17T20:27:58.212Z,18.13
2018-02-17T20:30:26.351Z,16.57
2018-02-17T20:32:54.432Z,17.03
2018-02-17T20:35:23.312Z,16.57
2018-02-17T20:37:51.337Z,17.67
2018-02-17T20:40:19.436Z,17.77
2018-02-17T20:42:48.360Z,20.80
2018-02-17T20:45:17.237Z,21.37
2018-02-17T20:47:45.327Z,20.60
2018-02-17T20:50:14.148Z,21.67
2018-02-17T20:52:42.204Z,22.90
2018-02-17T20:55:10.304Z,22.47
2018-02-17T20:57:38.369Z,24.10
2018-02-17T21:00:06.513Z,23.53
2018-02-17T21:02:34.611Z,25.97
2018-02-17T21:05:02.850Z,30.93
2018-02-17T21:07:30.980Z,32.90
2018-02-17T21:09:59.037Z,27.90
2018-02-17T21:12:27.238Z,25.93
2018-02-17T21:14:55.286Z,26.93
2018-02-17T21:17:23.346Z,26.80
2018-02-17T21:19:51.466Z,27.23
2018-02-17T21:22:19.519Z,29.73
2018-02-17T21:24:48.514Z,27.40
2018-02-17T21:27:16.562Z,26.97
2018-02-17T21:29:44.662Z,22.17
2018-02-17T21:32:12.707Z,23.13
2018-02-17T21:34:40.796Z,23.77
2018-02-17T21:37:08.855Z,24.93
2018-02-17T21:39:38.032Z,23.73
2018-02-17T21:42:06.082Z,25.77
2018-02-17T21:44:34.175Z,24.93
2018-02-17T21:47:02.328Z,29.80
2018-02-17T21:49:35.298Z,29.10
2018-02-17T21:52:03.474Z,28.20
2018-02-17T21:54:31.542Z,35.00
2018-02-17T21:56:59.695Z,48.17
2018-02-17T21:59:28.676Z,36.87
2018-02-17T22:01:57.494Z,48.40
2018-02-17T22:04:25.587Z,30.90
2018-02-17T22:06:53.629Z,37.60
2018-02-17T22:09:21.680Z,42.10
2018-02-17T22:11:49.747Z,52.50
2018-02-17T22:14:18.508Z,57.57
2018-02-17T22:16:47.401Z,31.93
2018-02-17T22:19:16.248Z,35.77
2018-02-17T22:21:44.433Z,29.23
2018-02-17T22:24:12.638Z,34.57
2018-02-17T22:26:40.696Z,34.77
2018-02-17T22:29:08.756Z,42.80
2018-02-17T22:31:37.655Z,38.37
2018-02-17T22:34:06.557Z,35.40
2018-02-17T22:36:36.120Z,32.73
2018-02-17T22:39:04.241Z,33.60
2018-02-17T22:41:32.294Z,35.00
2018-02-17T22:44:00.359Z,36.93
2018-02-17T22:46:28.623Z,37.20
2018-02-17T22:48:56.745Z,34.27
2018-02-17T22:51:25.524Z,35.90
2018-02-17T22:53:53.628Z,37.60
2018-02-17T22:56:21.955Z,38.13
2018-02-17T22:58:50.210Z,35.33
2018-02-17T23:01:18.250Z,34.17
2018-02-17T23:03:46.448Z,37.37
2018-02-17T23:06:14.483Z,37.30
2018-02-17T23:08:42.548Z,37.60
2018-02-17T23:11:10.902Z,36.13
2018-02-17T23:13:38.961Z,33.07
2018-02-17T23:16:07.802Z,33.70
2018-02-17T23:18:35.839Z,36.87
2018-02-17T23:21:04.699Z,37.43
2018-02-17T23:23:32.881Z,37.63
2018-02-17T23:26:00.949Z,37.47
2018-02-17T23:28:29.258Z,56.47
2018-02-17T23:30:57.327Z,44.97
2018-02-17T23:33:25.402Z,50.27
2018-02-17T23:35:53.623Z,41.10
2018-02-17T23:38:21.682Z,58.47
2018-02-17T23:40:49.765Z,56.33
2018-02-17T23:43:17.822Z,58.67
2018-02-17T23:45:45.920Z,60.60
2018-02-17T23:48:14.005Z,64.77
2018-02-17T23:50:42.849Z,60.03
2018-02-17T23:53:11.126Z,59.37
2018-02-17T23:55:39.234Z,51.83
2018-02-17T23:58:07.379Z,50.03
